sensor_id;sensor_type;location;lat;lon;timestamp;pressure;altitude;pressure_sealevel;temperature;humidity
76337;BME280;65157;50.082;18.178;2024-01-30T00:00:13;101124.52;;;1.55;73.41
76337;BME280;65157;50.082;18.178;2024-01-30T00:03:00;101125.42;;;1.56;73.45
76337;BME280;65157;50.082;18.178;2024-01-30T00:05:27;101127.70;;;1.56;73.59
76337;BME280;65157;50.082;18.178;2024-01-30T00:07:53;101131.02;;;1.56;73.75
76337;BME280;65157;50.082;18.178;2024-01-30T00:10:20;101133.77;;;1.56;73.77
76337;BME280;65157;50.082;18.178;2024-01-30T00:12:46;101131.30;;;1.54;74.05
76337;BME280;65157;50.082;18.178;2024-01-30T00:15:13;101127.63;;;1.53;73.98
76337;BME280;65157;50.082;18.178;2024-01-30T00:17:40;101124.60;;;1.51;74.49
76337;BME280;65157;50.082;18.178;2024-01-30T00:20:07;101121.27;;;1.49;74.25
76337;BME280;65157;50.082;18.178;2024-01-30T00:22:33;101123.31;;;1.48;74.46
76337;BME280;65157;50.082;18.178;2024-01-30T00:25:00;101116.99;;;1.46;74.56
76337;BME280;65157;50.082;18.178;2024-01-30T00:27:27;101116.20;;;1.42;74.64
76337;BME280;65157;50.082;18.178;2024-01-30T00:29:53;101112.54;;;1.42;74.65
76337;BME280;65157;50.082;18.178;2024-01-30T00:32:20;101116.04;;;1.43;74.58
76337;BME280;65157;50.082;18.178;2024-01-30T00:34:46;101116.04;;;1.43;74.45
76337;BME280;65157;50.082;18.178;2024-01-30T00:37:13;101118.68;;;1.44;74.44
76337;BME280;65157;50.082;18.178;2024-01-30T00:39:40;101119.38;;;1.44;74.51
76337;BME280;65157;50.082;18.178;2024-01-30T00:42:06;101120.94;;;1.44;74.56
76337;BME280;65157;50.082;18.178;2024-01-30T00:44:36;101116.08;;;1.44;74.43
76337;BME280;65157;50.082;18.178;2024-01-30T00:47:03;101116.27;;;1.45;74.40
76337;BME280;65157;50.082;18.178;2024-01-30T00:49:29;101117.48;;;1.44;74.35
76337;BME280;65157;50.082;18.178;2024-01-30T00:51:56;101113.63;;;1.43;74.46
76337;BME280;65157;50.082;18.178;2024-01-30T00:54:22;101114.83;;;1.43;74.43
76337;BME280;65157;50.082;18.178;2024-01-30T00:56:49;101115.83;;;1.41;74.43
76337;BME280;65157;50.082;18.178;2024-01-30T00:59:16;101115.98;;;1.40;74.39
76337;BME280;65157;50.082;18.178;2024-01-30T01:01:42;101113.88;;;1.39;74.46
76337;BME280;65157;50.082;18.178;2024-01-30T01:04:09;101105.30;;;1.37;74.27
76337;BME280;65157;50.082;18.178;2024-01-30T01:06:36;101108.41;;;1.36;74.25
76337;BME280;65157;50.082;18.178;2024-01-30T01:09:03;101108.55;;;1.34;74.35
76337;BME280;65157;50.082;18.178;2024-01-30T01:11:32;101110.88;;;1.31;74.34
76337;BME280;65157;50.082;18.178;2024-01-30T01:13:59;101106.40;;;1.26;74.28
76337;BME280;65157;50.082;18.178;2024-01-30T01:16:25;101113.98;;;1.23;74.49
76337;BME280;65157;50.082;18.178;2024-01-30T01:18:52;101110.01;;;1.17;74.47
76337;BME280;65157;50.082;18.178;2024-01-30T01:21:19;101107.33;;;1.14;74.60
76337;BME280;65157;50.082;18.178;2024-01-30T01:23:45;101102.33;;;1.09;74.63
76337;BME280;65157;50.082;18.178;2024-01-30T01:26:13;101099.45;;;1.05;74.63
76337;BME280;65157;50.082;18.178;2024-01-30T01:28:40;101101.45;;;1.02;74.58
76337;BME280;65157;50.082;18.178;2024-01-30T01:31:07;101098.95;;;0.99;74.66
76337;BME280;65157;50.082;18.178;2024-01-30T01:33:34;101104.30;;;0.98;74.90
76337;BME280;65157;50.082;18.178;2024-01-30T01:36:01;101102.02;;;0.97;74.74
76337;BME280;65157;50.082;18.178;2024-01-30T01:38:28;101104.06;;;0.96;74.76
76337;BME280;65157;50.082;18.178;2024-01-30T01:40:55;101104.90;;;0.94;74.65
76337;BME280;65157;50.082;18.178;2024-01-30T01:43:21;101100.17;;;0.93;74.77
76337;BME280;65157;50.082;18.178;2024-01-30T01:45:48;101101.05;;;0.93;74.58
76337;BME280;65157;50.082;18.178;2024-01-30T01:48:15;101097.75;;;0.93;74.73
76337;BME280;65157;50.082;18.178;2024-01-30T01:50:42;101097.23;;;0.94;74.64
76337;BME280;65157;50.082;18.178;2024-01-30T01:53:10;101094.09;;;0.93;74.66
76337;BME280;65157;50.082;18.178;2024-01-30T01:55:37;101091.52;;;0.94;74.85
76337;BME280;65157;50.082;18.178;2024-01-30T01:58:04;101086.16;;;0.95;74.76
76337;BME280;65157;50.082;18.178;2024-01-30T02:00:31;101084.58;;;0.96;74.72
76337;BME280;65157;50.082;18.178;2024-01-30T02:03:00;101086.88;;;0.97;74.75
76337;BME280;65157;50.082;18.178;2024-01-30T02:05:26;101084.52;;;0.99;74.83
76337;BME280;65157;50.082;18.178;2024-01-30T02:07:54;101085.98;;;1.02;74.81
76337;BME280;65157;50.082;18.178;2024-01-30T02:10:21;101081.33;;;1.03;74.82
76337;BME280;65157;50.082;18.178;2024-01-30T02:12:48;101083.06;;;1.03;74.79
76337;BME280;65157;50.082;18.178;2024-01-30T02:15:15;101084.77;;;1.03;74.70
76337;BME280;65157;50.082;18.178;2024-01-30T02:17:42;101081.96;;;1.01;74.59
76337;BME280;65157;50.082;18.178;2024-01-30T02:20:09;101078.09;;;0.99;74.54
76337;BME280;65157;50.082;18.178;2024-01-30T02:22:37;101077.92;;;1.00;74.54
76337;BME280;65157;50.082;18.178;2024-01-30T02:25:06;101082.95;;;0.99;74.56
76337;BME280;65157;50.082;18.178;2024-01-30T02:27:33;101076.33;;;0.99;74.48
76337;BME280;65157;50.082;18.178;2024-01-30T02:29:59;101074.77;;;0.99;74.51
76337;BME280;65157;50.082;18.178;2024-01-30T02:32:26;101073.60;;;1.00;74.53
76337;BME280;65157;50.082;18.178;2024-01-30T02:34:53;101073.95;;;1.00;74.35
76337;BME280;65157;50.082;18.178;2024-01-30T02:37:19;101071.83;;;0.99;74.43
76337;BME280;65157;50.082;18.178;2024-01-30T02:39:46;101070.76;;;0.98;74.51
76337;BME280;65157;50.082;18.178;2024-01-30T02:42:14;101069.35;;;0.97;74.41
76337;BME280;65157;50.082;18.178;2024-01-30T02:44:40;101065.65;;;0.96;74.49
76337;BME280;65157;50.082;18.178;2024-01-30T02:47:07;101066.13;;;0.94;74.34
76337;BME280;65157;50.082;18.178;2024-01-30T02:49:33;101073.06;;;0.93;74.29
76337;BME280;65157;50.082;18.178;2024-01-30T02:52:00;101073.58;;;0.93;74.47
76337;BME280;65157;50.082;18.178;2024-01-30T02:54:27;101074.27;;;0.93;74.30
76337;BME280;65157;50.082;18.178;2024-01-30T02:56:53;101066.02;;;0.90;74.37
76337;BME280;65157;50.082;18.178;2024-01-30T02:59:20;101072.23;;;0.88;74.35
76337;BME280;65157;50.082;18.178;2024-01-30T03:01:47;101071.86;;;0.87;74.63
76337;BME280;65157;50.082;18.178;2024-01-30T03:04:15;101066.55;;;0.84;74.47
76337;BME280;65157;50.082;18.178;2024-01-30T03:06:45;101062.64;;;0.80;74.55
76337;BME280;65157;50.082;18.178;2024-01-30T03:09:12;101066.38;;;0.78;74.51
76337;BME280;65157;50.082;18.178;2024-01-30T03:11:40;101062.13;;;0.74;74.66
76337;BME280;65157;50.082;18.178;2024-01-30T03:14:07;101060.56;;;0.74;74.50
76337;BME280;65157;50.082;18.178;2024-01-30T03:16:33;101060.71;;;0.74;74.40
76337;BME280;65157;50.082;18.178;2024-01-30T03:19:00;101064.17;;;0.73;74.60
76337;BME280;65157;50.082;18.178;2024-01-30T03:21:27;101062.06;;;0.72;74.53
76337;BME280;65157;50.082;18.178;2024-01-30T03:23:55;101060.11;;;0.71;74.75
76337;BME280;65157;50.082;18.178;2024-01-30T03:26:21;101059.23;;;0.69;74.65
76337;BME280;65157;50.082;18.178;2024-01-30T03:28:48;101059.19;;;0.68;74.87
76337;BME280;65157;50.082;18.178;2024-01-30T03:31:15;101059.13;;;0.66;74.65
76337;BME280;65157;50.082;18.178;2024-01-30T03:33:42;101058.27;;;0.67;74.55
76337;BME280;65157;50.082;18.178;2024-01-30T03:36:09;101054.94;;;0.65;74.61
76337;BME280;65157;50.082;18.178;2024-01-30T03:38:36;101058.02;;;0.63;74.61
76337;BME280;65157;50.082;18.178;2024-01-30T03:41:03;101058.73;;;0.58;74.84
76337;BME280;65157;50.082;18.178;2024-01-30T03:43:30;101055.83;;;0.52;74.78
76337;BME280;65157;50.082;18.178;2024-01-30T03:45:57;101051.39;;;0.49;74.94
76337;BME280;65157;50.082;18.178;2024-01-30T03:48:24;101055.19;;;0.48;74.98
76337;BME280;65157;50.082;18.178;2024-01-30T03:50:51;101056.98;;;0.51;74.98
76337;BME280;65157;50.082;18.178;2024-01-30T03:53:17;101058.90;;;0.51;75.08
76337;BME280;65157;50.082;18.178;2024-01-30T03:55:44;101054.86;;;0.49;75.26
76337;BME280;65157;50.082;18.178;2024-01-30T03:58:10;101054.29;;;0.47;75.29
76337;BME280;65157;50.082;18.178;2024-01-30T04:00:37;101055.88;;;0.42;75.46
76337;BME280;65157;50.082;18.178;2024-01-30T04:03:04;101056.61;;;0.37;75.66
76337;BME280;65157;50.082;18.178;2024-01-30T04:05:31;101056.13;;;0.33;75.70
76337;BME280;65157;50.082;18.178;2024-01-30T04:07:58;101058.03;;;0.32;75.91
76337;BME280;65157;50.082;18.178;2024-01-30T04:10:24;101055.04;;;0.31;75.76
76337;BME280;65157;50.082;18.178;2024-01-30T04:12:51;101058.31;;;0.30;75.77
76337;BME280;65157;50.082;18.178;2024-01-30T04:15:18;101057.80;;;0.30;75.77
76337;BME280;65157;50.082;18.178;2024-01-30T04:17:45;101061.42;;;0.30;75.88
76337;BME280;65157;50.082;18.178;2024-01-30T04:20:16;101057.41;;;0.28;76.08
76337;BME280;65157;50.082;18.178;2024-01-30T04:22:46;101057.90;;;0.27;75.94
76337;BME280;65157;50.082;18.178;2024-01-30T04:25:13;101059.98;;;0.27;76.00
76337;BME280;65157;50.082;18.178;2024-01-30T04:27:40;101062.48;;;0.24;75.99
76337;BME280;65157;50.082;18.178;2024-01-30T04:30:11;101065.59;;;0.23;76.06
76337;BME280;65157;50.082;18.178;2024-01-30T04:32:38;101062.29;;;0.23;75.93
76337;BME280;65157;50.082;18.178;2024-01-30T04:35:05;101066.48;;;0.24;76.03
76337;BME280;65157;50.082;18.178;2024-01-30T04:37:32;101062.78;;;0.22;76.08
76337;BME280;65157;50.082;18.178;2024-01-30T04:39:59;101063.38;;;0.19;76.01
76337;BME280;65157;50.082;18.178;2024-01-30T04:42:26;101068.54;;;0.17;76.10
76337;BME280;65157;50.082;18.178;2024-01-30T04:44:52;101068.67;;;0.16;76.41
76337;BME280;65157;50.082;18.178;2024-01-30T04:47:19;101071.27;;;0.16;76.48
76337;BME280;65157;50.082;18.178;2024-01-30T04:49:45;101072.83;;;0.15;76.53
76337;BME280;65157;50.082;18.178;2024-01-30T04:52:12;101072.47;;;0.15;76.66
76337;BME280;65157;50.082;18.178;2024-01-30T04:54:39;101073.84;;;0.14;76.55
76337;BME280;65157;50.082;18.178;2024-01-30T04:57:05;101071.61;;;0.15;76.58
76337;BME280;65157;50.082;18.178;2024-01-30T04:59:32;101068.73;;;0.17;76.80
76337;BME280;65157;50.082;18.178;2024-01-30T05:01:59;101070.73;;;0.21;76.77
76337;BME280;65157;50.082;18.178;2024-01-30T05:04:25;101073.14;;;0.26;76.74
76337;BME280;65157;50.082;18.178;2024-01-30T05:06:52;101071.35;;;0.30;76.87
76337;BME280;65157;50.082;18.178;2024-01-30T05:09:19;101073.33;;;0.33;76.77
76337;BME280;65157;50.082;18.178;2024-01-30T05:11:45;101073.95;;;0.36;76.71
76337;BME280;65157;50.082;18.178;2024-01-30T05:14:12;101070.90;;;0.39;76.67
76337;BME280;65157;50.082;18.178;2024-01-30T05:16:39;101072.67;;;0.40;76.76
76337;BME280;65157;50.082;18.178;2024-01-30T05:19:06;101071.61;;;0.39;76.94
76337;BME280;65157;50.082;18.178;2024-01-30T05:21:32;101076.83;;;0.41;76.83
76337;BME280;65157;50.082;18.178;2024-01-30T05:23:59;101081.73;;;0.41;76.63
76337;BME280;65157;50.082;18.178;2024-01-30T05:26:26;101082.15;;;0.43;76.79
76337;BME280;65157;50.082;18.178;2024-01-30T05:28:52;101078.79;;;0.41;76.92
76337;BME280;65157;50.082;18.178;2024-01-30T05:31:19;101075.76;;;0.38;77.19
76337;BME280;65157;50.082;18.178;2024-01-30T05:33:46;101072.49;;;0.34;77.16
76337;BME280;65157;50.082;18.178;2024-01-30T05:36:12;101071.02;;;0.31;77.19
76337;BME280;65157;50.082;18.178;2024-01-30T05:38:39;101074.39;;;0.27;76.99
76337;BME280;65157;50.082;18.178;2024-01-30T05:41:06;101073.33;;;0.27;77.20
76337;BME280;65157;50.082;18.178;2024-01-30T05:43:32;101072.75;;;0.25;77.34
76337;BME280;65157;50.082;18.178;2024-01-30T05:46:00;101068.25;;;0.25;77.72
76337;BME280;65157;50.082;18.178;2024-01-30T05:48:27;101070.36;;;0.26;77.79
76337;BME280;65157;50.082;18.178;2024-01-30T05:50:53;101066.87;;;0.26;77.80
76337;BME280;65157;50.082;18.178;2024-01-30T05:53:20;101066.21;;;0.27;77.72
76337;BME280;65157;50.082;18.178;2024-01-30T05:55:47;101066.41;;;0.28;78.29
76337;BME280;65157;50.082;18.178;2024-01-30T05:58:13;101062.16;;;0.31;78.06
76337;BME280;65157;50.082;18.178;2024-01-30T06:00:40;101060.96;;;0.31;78.48
76337;BME280;65157;50.082;18.178;2024-01-30T06:03:07;101060.64;;;0.33;77.96
76337;BME280;65157;50.082;18.178;2024-01-30T06:05:34;101061.01;;;0.33;78.28
76337;BME280;65157;50.082;18.178;2024-01-30T06:08:02;101061.82;;;0.37;78.06
76337;BME280;65157;50.082;18.178;2024-01-30T06:10:30;101060.86;;;0.40;78.16
76337;BME280;65157;50.082;18.178;2024-01-30T06:12:56;101064.09;;;0.43;77.81
76337;BME280;65157;50.082;18.178;2024-01-30T06:15:23;101063.96;;;0.45;77.75
76337;BME280;65157;50.082;18.178;2024-01-30T06:17:50;101066.09;;;0.47;77.63
76337;BME280;65157;50.082;18.178;2024-01-30T06:20:17;101064.55;;;0.48;77.58
76337;BME280;65157;50.082;18.178;2024-01-30T06:22:43;101063.21;;;0.50;77.70
76337;BME280;65157;50.082;18.178;2024-01-30T06:25:10;101063.23;;;0.50;77.51
76337;BME280;65157;50.082;18.178;2024-01-30T06:27:36;101065.23;;;0.53;77.49
76337;BME280;65157;50.082;18.178;2024-01-30T06:30:04;101063.93;;;0.57;77.61
76337;BME280;65157;50.082;18.178;2024-01-30T06:32:31;101065.45;;;0.62;77.25
76337;BME280;65157;50.082;18.178;2024-01-30T06:34:58;101066.06;;;0.65;77.14
76337;BME280;65157;50.082;18.178;2024-01-30T06:37:24;101063.20;;;0.68;77.06
76337;BME280;65157;50.082;18.178;2024-01-30T06:39:51;101065.52;;;0.71;76.88
76337;BME280;65157;50.082;18.178;2024-01-30T06:42:19;101067.85;;;0.74;76.92
76337;BME280;65157;50.082;18.178;2024-01-30T06:44:45;101067.60;;;0.77;76.66
76337;BME280;65157;50.082;18.178;2024-01-30T06:47:13;101070.63;;;0.80;76.52
76337;BME280;65157;50.082;18.178;2024-01-30T06:49:39;101075.78;;;0.85;76.45
76337;BME280;65157;50.082;18.178;2024-01-30T06:52:06;101071.52;;;0.87;76.34
76337;BME280;65157;50.082;18.178;2024-01-30T06:54:33;101073.36;;;0.91;76.27
76337;BME280;65157;50.082;18.178;2024-01-30T06:56:59;101066.48;;;0.94;76.09
76337;BME280;65157;50.082;18.178;2024-01-30T06:59:26;101067.61;;;0.97;76.07
76337;BME280;65157;50.082;18.178;2024-01-30T07:01:54;101068.89;;;1.00;76.14
76337;BME280;65157;50.082;18.178;2024-01-30T07:04:21;101063.27;;;1.04;75.88
76337;BME280;65157;50.082;18.178;2024-01-30T07:06:48;101068.79;;;1.09;75.64
76337;BME280;65157;50.082;18.178;2024-01-30T07:09:14;101071.66;;;1.13;75.75
76337;BME280;65157;50.082;18.178;2024-01-30T07:11:41;101076.83;;;1.19;75.43
76337;BME280;65157;50.082;18.178;2024-01-30T07:14:09;101075.44;;;1.26;75.35
76337;BME280;65157;50.082;18.178;2024-01-30T07:16:36;101072.59;;;1.30;75.13
76337;BME280;65157;50.082;18.178;2024-01-30T07:19:03;101075.41;;;1.38;74.89
76337;BME280;65157;50.082;18.178;2024-01-30T07:21:33;101076.94;;;1.44;74.77
76337;BME280;65157;50.082;18.178;2024-01-30T07:24:00;101074.13;;;1.50;74.61
76337;BME280;65157;50.082;18.178;2024-01-30T07:26:27;101074.58;;;1.61;74.35
76337;BME280;65157;50.082;18.178;2024-01-30T07:28:54;101072.48;;;1.69;74.35
76337;BME280;65157;50.082;18.178;2024-01-30T07:31:21;101076.84;;;1.78;74.11
76337;BME280;65157;50.082;18.178;2024-01-30T07:33:48;101082.77;;;1.86;73.76
76337;BME280;65157;50.082;18.178;2024-01-30T07:36:14;101081.18;;;1.93;73.76
76337;BME280;65157;50.082;18.178;2024-01-30T07:38:41;101077.39;;;2.02;73.40
76337;BME280;65157;50.082;18.178;2024-01-30T07:41:07;101080.88;;;2.10;73.02
76337;BME280;65157;50.082;18.178;2024-01-30T07:43:34;101075.63;;;2.17;72.42
76337;BME280;65157;50.082;18.178;2024-01-30T07:46:01;101077.66;;;2.32;72.37
76337;BME280;65157;50.082;18.178;2024-01-30T07:48:28;101082.45;;;2.44;72.18
76337;BME280;65157;50.082;18.178;2024-01-30T07:50:54;101080.67;;;2.60;71.90
76337;BME280;65157;50.082;18.178;2024-01-30T07:53:21;101079.77;;;2.76;70.92
76337;BME280;65157;50.082;18.178;2024-01-30T07:55:48;101077.67;;;2.96;70.92
76337;BME280;65157;50.082;18.178;2024-01-30T07:58:14;101075.88;;;3.23;70.20
76337;BME280;65157;50.082;18.178;2024-01-30T08:00:41;101075.06;;;3.47;69.25
76337;BME280;65157;50.082;18.178;2024-01-30T08:03:08;101074.19;;;3.59;68.66
76337;BME280;65157;50.082;18.178;2024-01-30T08:05:34;101076.07;;;3.45;69.14
76337;BME280;65157;50.082;18.178;2024-01-30T08:08:01;101072.55;;;3.32;69.09
76337;BME280;65157;50.082;18.178;2024-01-30T08:10:28;101076.23;;;3.23;69.28
76337;BME280;65157;50.082;18.178;2024-01-30T08:12:54;101078.02;;;3.16;69.68
76337;BME280;65157;50.082;18.178;2024-01-30T08:15:21;101076.36;;;3.11;69.58
76337;BME280;65157;50.082;18.178;2024-01-30T08:17:47;101074.19;;;3.07;69.86
76337;BME280;65157;50.082;18.178;2024-01-30T08:20:14;101078.36;;;3.06;69.86
76337;BME280;65157;50.082;18.178;2024-01-30T08:22:40;101082.55;;;3.05;70.06
76337;BME280;65157;50.082;18.178;2024-01-30T08:25:07;101078.89;;;3.05;69.80
76337;BME280;65157;50.082;18.178;2024-01-30T08:27:34;101080.98;;;3.06;70.18
76337;BME280;65157;50.082;18.178;2024-01-30T08:30:01;101077.34;;;3.07;70.29
76337;BME280;65157;50.082;18.178;2024-01-30T08:32:28;101083.15;;;3.09;70.39
76337;BME280;65157;50.082;18.178;2024-01-30T08:34:55;101077.97;;;3.12;70.09
76337;BME280;65157;50.082;18.178;2024-01-30T08:37:22;101076.80;;;3.16;69.68
76337;BME280;65157;50.082;18.178;2024-01-30T08:39:48;101075.49;;;3.21;69.85
76337;BME280;65157;50.082;18.178;2024-01-30T08:42:15;101076.80;;;3.27;69.39
76337;BME280;65157;50.082;18.178;2024-01-30T08:44:41;101075.14;;;3.31;69.73
76337;BME280;65157;50.082;18.178;2024-01-30T08:47:08;101076.63;;;3.36;69.91
76337;BME280;65157;50.082;18.178;2024-01-30T08:49:35;101071.98;;;3.40;69.49
76337;BME280;65157;50.082;18.178;2024-01-30T08:52:01;101072.92;;;3.46;68.24
76337;BME280;65157;50.082;18.178;2024-01-30T08:54:28;101075.63;;;3.51;68.67
76337;BME280;65157;50.082;18.178;2024-01-30T08:56:54;101074.45;;;3.54;68.61
76337;BME280;65157;50.082;18.178;2024-01-30T08:59:21;101074.89;;;3.60;68.78
76337;BME280;65157;50.082;18.178;2024-01-30T09:01:48;101073.05;;;3.64;68.89
76337;BME280;65157;50.082;18.178;2024-01-30T09:04:14;101073.13;;;3.70;68.60
76337;BME280;65157;50.082;18.178;2024-01-30T09:06:41;101073.89;;;3.74;68.25
76337;BME280;65157;50.082;18.178;2024-01-30T09:09:08;101074.81;;;3.78;68.49
76337;BME280;65157;50.082;18.178;2024-01-30T09:11:35;101067.88;;;3.81;68.94
76337;BME280;65157;50.082;18.178;2024-01-30T09:14:01;101072.36;;;3.90;68.77
76337;BME280;65157;50.082;18.178;2024-01-30T09:16:29;101066.33;;;3.95;68.42
76337;BME280;65157;50.082;18.178;2024-01-30T09:18:56;101063.08;;;4.00;68.35
76337;BME280;65157;50.082;18.178;2024-01-30T09:21:22;101062.63;;;4.05;68.15
76337;BME280;65157;50.082;18.178;2024-01-30T09:23:49;101067.40;;;4.10;67.66
76337;BME280;65157;50.082;18.178;2024-01-30T09:26:16;101070.25;;;4.15;67.61
76337;BME280;65157;50.082;18.178;2024-01-30T09:28:42;101068.59;;;4.21;67.85
76337;BME280;65157;50.082;18.178;2024-01-30T09:31:10;101067.61;;;4.26;67.62
76337;BME280;65157;50.082;18.178;2024-01-30T09:33:37;101064.89;;;4.33;67.26
76337;BME280;65157;50.082;18.178;2024-01-30T09:36:05;101057.25;;;4.36;67.34
76337;BME280;65157;50.082;18.178;2024-01-30T09:38:31;101059.77;;;4.43;66.81
76337;BME280;65157;50.082;18.178;2024-01-30T09:41:02;101058.09;;;4.48;66.94
76337;BME280;65157;50.082;18.178;2024-01-30T09:43:33;101057.30;;;4.55;66.66
76337;BME280;65157;50.082;18.178;2024-01-30T09:46:02;101055.61;;;4.62;65.80
76337;BME280;65157;50.082;18.178;2024-01-30T09:48:30;101054.27;;;4.67;65.55
76337;BME280;65157;50.082;18.178;2024-01-30T09:50:57;101051.79;;;4.81;65.70
76337;BME280;65157;50.082;18.178;2024-01-30T09:53:24;101049.98;;;5.12;65.57
76337;BME280;65157;50.082;18.178;2024-01-30T09:55:51;101045.15;;;5.41;64.37
76337;BME280;65157;50.082;18.178;2024-01-30T09:58:18;101045.20;;;5.48;63.39
76337;BME280;65157;50.082;18.178;2024-01-30T10:00:44;101041.15;;;5.46;63.56
76337;BME280;65157;50.082;18.178;2024-01-30T10:03:11;101043.92;;;5.43;63.21
76337;BME280;65157;50.082;18.178;2024-01-30T10:05:40;101044.27;;;5.42;63.22
76337;BME280;65157;50.082;18.178;2024-01-30T10:08:07;101041.83;;;5.41;64.01
76337;BME280;65157;50.082;18.178;2024-01-30T10:10:34;101043.05;;;5.44;63.32
76337;BME280;65157;50.082;18.178;2024-01-30T10:13:01;101039.39;;;5.44;63.46
76337;BME280;65157;50.082;18.178;2024-01-30T10:15:28;101035.55;;;5.45;63.94
76337;BME280;65157;50.082;18.178;2024-01-30T10:17:55;101032.41;;;5.47;63.76
76337;BME280;65157;50.082;18.178;2024-01-30T10:20:22;101029.13;;;5.52;62.93
76337;BME280;65157;50.082;18.178;2024-01-30T10:22:51;101027.39;;;5.56;62.74
76337;BME280;65157;50.082;18.178;2024-01-30T10:25:17;101021.48;;;5.62;63.32
76337;BME280;65157;50.082;18.178;2024-01-30T10:27:44;101013.45;;;5.69;62.51
76337;BME280;65157;50.082;18.178;2024-01-30T10:30:11;101012.95;;;5.74;61.89
76337;BME280;65157;50.082;18.178;2024-01-30T10:32:37;101007.20;;;5.80;62.80
76337;BME280;65157;50.082;18.178;2024-01-30T10:35:04;101004.48;;;5.88;61.78
76337;BME280;65157;50.082;18.178;2024-01-30T10:37:31;101003.11;;;5.96;60.83
76337;BME280;65157;50.082;18.178;2024-01-30T10:40:02;101000.52;;;6.04;61.16
76337;BME280;65157;50.082;18.178;2024-01-30T10:42:31;100998.98;;;6.11;60.46
76337;BME280;65157;50.082;18.178;2024-01-30T10:45:10;101000.04;;;6.18;60.67
76337;BME280;65157;50.082;18.178;2024-01-30T10:47:37;100998.16;;;6.30;60.81
76337;BME280;65157;50.082;18.178;2024-01-30T10:50:04;100993.98;;;6.45;60.21
76337;BME280;65157;50.082;18.178;2024-01-30T10:52:31;100997.02;;;6.63;60.35
76337;BME280;65157;50.082;18.178;2024-01-30T10:54:58;100992.13;;;6.84;59.63
76337;BME280;65157;50.082;18.178;2024-01-30T10:57:26;100987.75;;;7.03;59.09
76337;BME280;65157;50.082;18.178;2024-01-30T10:59:56;100985.80;;;7.24;59.13
76337;BME280;65157;50.082;18.178;2024-01-30T11:02:24;100982.96;;;7.45;57.96
76337;BME280;65157;50.082;18.178;2024-01-30T11:04:56;100984.33;;;7.68;58.66
76337;BME280;65157;50.082;18.178;2024-01-30T11:07:27;100975.99;;;7.90;58.29
76337;BME280;65157;50.082;18.178;2024-01-30T11:12:25;100964.41;;;8.26;55.04
76337;BME280;65157;50.082;18.178;2024-01-30T11:15:09;100965.08;;;8.38;56.02
76337;BME280;65157;50.082;18.178;2024-01-30T11:17:43;100955.61;;;8.57;55.78
76337;BME280;65157;50.082;18.178;2024-01-30T11:20:15;100956.23;;;8.69;54.78
76337;BME280;65157;50.082;18.178;2024-01-30T11:22:46;100952.98;;;8.81;54.19
76337;BME280;65157;50.082;18.178;2024-01-30T11:25:14;100953.23;;;8.93;54.73
76337;BME280;65157;50.082;18.178;2024-01-30T11:27:43;100954.70;;;9.08;53.47
76337;BME280;65157;50.082;18.178;2024-01-30T11:30:11;100954.10;;;9.15;53.42
76337;BME280;65157;50.082;18.178;2024-01-30T11:33:04;100950.96;;;9.30;53.95
76337;BME280;65157;50.082;18.178;2024-01-30T11:35:36;100949.33;;;9.36;52.28
76337;BME280;65157;50.082;18.178;2024-01-30T11:38:04;100940.27;;;9.24;51.41
76337;BME280;65157;50.082;18.178;2024-01-30T11:40:32;100933.12;;;9.17;52.46
76337;BME280;65157;50.082;18.178;2024-01-30T11:43:00;100930.80;;;9.19;52.69
76337;BME280;65157;50.082;18.178;2024-01-30T11:45:27;100931.97;;;9.27;52.25
76337;BME280;65157;50.082;18.178;2024-01-30T11:47:55;100926.30;;;9.29;51.96
76337;BME280;65157;50.082;18.178;2024-01-30T11:50:22;100924.48;;;9.35;50.98
76337;BME280;65157;50.082;18.178;2024-01-30T11:52:48;100918.69;;;9.33;51.19
76337;BME280;65157;50.082;18.178;2024-01-30T11:55:15;100916.98;;;9.29;52.21
76337;BME280;65157;50.082;18.178;2024-01-30T11:57:42;100911.39;;;9.22;51.76
76337;BME280;65157;50.082;18.178;2024-01-30T12:00:18;100910.16;;;9.23;52.10
76337;BME280;65157;50.082;18.178;2024-01-30T12:02:53;100908.29;;;9.34;51.47
76337;BME280;65157;50.082;18.178;2024-01-30T12:05:19;100901.33;;;9.41;52.18
76337;BME280;65157;50.082;18.178;2024-01-30T12:07:46;100906.77;;;9.44;51.67
76337;BME280;65157;50.082;18.178;2024-01-30T12:10:14;100902.95;;;9.37;51.87
76337;BME280;65157;50.082;18.178;2024-01-30T12:12:44;100894.00;;;9.35;51.30
76337;BME280;65157;50.082;18.178;2024-01-30T12:15:11;100897.59;;;9.28;51.24
76337;BME280;65157;50.082;18.178;2024-01-30T12:17:39;100895.02;;;9.22;51.48
76337;BME280;65157;50.082;18.178;2024-01-30T12:20:09;100897.74;;;9.14;51.70
76337;BME280;65157;50.082;18.178;2024-01-30T12:22:47;100890.14;;;8.98;51.80
76337;BME280;65157;50.082;18.178;2024-01-30T12:25:16;100890.59;;;8.89;52.03
76337;BME280;65157;50.082;18.178;2024-01-30T12:27:44;100885.17;;;8.83;52.54
76337;BME280;65157;50.082;18.178;2024-01-30T12:30:12;100890.28;;;8.84;52.55
76337;BME280;65157;50.082;18.178;2024-01-30T12:32:44;100886.94;;;8.83;52.49
76337;BME280;65157;50.082;18.178;2024-01-30T12:35:16;100886.05;;;8.83;52.60
76337;BME280;65157;50.082;18.178;2024-01-30T12:37:44;100882.90;;;8.82;52.73
76337;BME280;65157;50.082;18.178;2024-01-30T12:40:13;100880.77;;;8.85;52.97
76337;BME280;65157;50.082;18.178;2024-01-30T12:42:40;100877.06;;;8.84;52.47
76337;BME280;65157;50.082;18.178;2024-01-30T12:45:08;100879.57;;;8.79;52.39
76337;BME280;65157;50.082;18.178;2024-01-30T12:47:34;100876.45;;;8.75;52.48
76337;BME280;65157;50.082;18.178;2024-01-30T12:50:01;100871.36;;;8.73;52.78
76337;BME280;65157;50.082;18.178;2024-01-30T12:52:28;100875.45;;;8.68;52.40